createdAt,value
2022-11-29T00:00:51.099Z,990.41
2022-11-29T00:01:51.188Z,990.41
2022-11-29T00:02:51.295Z,990.39
2022-11-29T00:03:51.113Z,990.36
2022-11-29T00:04:51.229Z,990.37
2022-11-29T00:05:51.132Z,990.33
2022-11-29T00:06:51.161Z,990.37
2022-11-29T00:07:51.176Z,990.38
2022-11-29T00:08:51.013Z,990.36
2022-11-29T00:09:51.064Z,990.33
2022-11-29T00:10:50.986Z,990.31
2022-11-29T00:11:51.008Z,990.35
2022-11-29T00:12:51.048Z,990.38
2022-11-29T00:13:51.173Z,990.33
2022-11-29T00:14:50.997Z,990.29
2022-11-29T00:15:50.971Z,990.33
2022-11-29T00:16:51.004Z,990.29
2022-11-29T00:17:50.989Z,990.35
2022-11-29T00:18:50.974Z,990.33
2022-11-29T00:19:50.893Z,990.35
2022-11-29T00:20:50.849Z,990.30
2022-11-29T00:21:50.840Z,990.32
2022-11-29T00:22:50.844Z,990.33
2022-11-29T00:23:52.006Z,990.33
2022-11-29T00:24:50.989Z,990.29
2022-11-29T00:25:50.807Z,990.34
2022-11-29T00:26:50.865Z,990.34
2022-11-29T00:27:50.769Z,990.28
2022-11-29T00:28:50.773Z,990.30
2022-11-29T00:29:50.866Z,990.32
2022-11-29T00:30:50.933Z,990.26
2022-11-29T00:31:50.884Z,990.28
2022-11-29T00:32:50.758Z,990.29
2022-11-29T00:33:50.774Z,990.33
2022-11-29T00:34:51.421Z,990.36
2022-11-29T00:35:50.795Z,990.30
2022-11-29T00:36:51.558Z,990.32
2022-11-29T00:37:50.665Z,990.31
2022-11-29T00:38:51.595Z,990.30
2022-11-29T00:39:50.742Z,990.36
2022-11-29T00:40:50.630Z,990.32
2022-11-29T00:41:50.615Z,990.33
2022-11-29T00:42:50.734Z,990.32
2022-11-29T00:43:50.614Z,990.32
2022-11-29T00:44:50.835Z,990.31
2022-11-29T00:45:50.727Z,990.31
2022-11-29T00:46:50.554Z,990.32
2022-11-29T00:47:50.626Z,990.30
2022-11-29T00:48:50.587Z,990.25
2022-11-29T00:49:51.671Z,990.27
2022-11-29T00:50:50.730Z,990.26
2022-11-29T00:51:50.494Z,990.27
2022-11-29T00:52:50.571Z,990.22
2022-11-29T00:53:50.541Z,990.36
2022-11-29T00:54:50.546Z,990.27
2022-11-29T00:55:50.540Z,990.35
2022-11-29T00:56:50.519Z,990.29
2022-11-29T00:57:50.486Z,990.32
2022-11-29T00:58:50.526Z,990.26
2022-11-29T00:59:50.552Z,990.36
2022-11-29T01:00:50.482Z,990.32
2022-11-29T01:01:50.412Z,990.31
2022-11-29T01:02:50.511Z,990.36
2022-11-29T01:03:51.034Z,990.31
2022-11-29T01:04:50.495Z,990.33
2022-11-29T01:05:50.384Z,990.31
2022-11-29T01:06:50.344Z,990.34
2022-11-29T01:07:50.489Z,990.24
2022-11-29T01:08:50.408Z,990.35
2022-11-29T01:09:50.356Z,990.33
2022-11-29T01:10:50.413Z,990.35
2022-11-29T01:11:50.396Z,990.36
2022-11-29T01:12:50.285Z,990.31
2022-11-29T01:13:50.467Z,990.32
2022-11-29T01:14:50.355Z,990.36
2022-11-29T01:15:50.293Z,990.35
2022-11-29T01:16:56.979Z,990.32
2022-11-29T01:17:50.352Z,990.36
2022-11-29T01:18:50.243Z,990.31
2022-11-29T01:19:51.114Z,990.31
2022-11-29T01:20:51.997Z,990.35
2022-11-29T01:21:51.250Z,990.36
2022-11-29T01:22:50.264Z,990.31
2022-11-29T01:23:50.804Z,990.35
2022-11-29T01:24:50.248Z,990.34
2022-11-29T01:25:50.973Z,990.35
2022-11-29T01:26:50.108Z,990.35
2022-11-29T01:27:50.150Z,990.40
2022-11-29T01:28:50.220Z,990.44
2022-11-29T01:29:50.125Z,990.42
2022-11-29T01:30:50.377Z,990.48
2022-11-29T01:31:50.147Z,990.45
2022-11-29T01:32:50.041Z,990.52
2022-11-29T01:33:50.162Z,990.50
2022-11-29T01:34:50.138Z,990.51
2022-11-29T01:35:50.106Z,990.45
2022-11-29T01:36:50.092Z,990.42
2022-11-29T01:37:50.016Z,990.55
2022-11-29T01:38:51.113Z,990.49
2022-11-29T01:39:50.153Z,990.47
2022-11-29T01:40:50.003Z,990.54
2022-11-29T01:41:50.122Z,990.47
2022-11-29T01:42:50.002Z,990.45
2022-11-29T01:43:50.002Z,990.43
2022-11-29T01:44:50.045Z,990.48
2022-11-29T01:45:50.055Z,990.50
2022-11-29T01:46:49.999Z,990.48
2022-11-29T01:47:49.934Z,990.50
2022-11-29T01:48:49.922Z,990.49
2022-11-29T01:49:49.979Z,990.49
2022-11-29T01:50:49.855Z,990.47
2022-11-29T01:51:49.878Z,990.46
2022-11-29T01:52:49.861Z,990.52
2022-11-29T01:53:49.902Z,990.47
2022-11-29T01:54:51.372Z,990.49
2022-11-29T01:55:49.969Z,990.49
2022-11-29T01:56:49.762Z,990.48
2022-11-29T01:57:49.826Z,990.52
2022-11-29T01:58:49.830Z,990.48
2022-11-29T01:59:49.841Z,990.49
2022-11-29T02:00:49.810Z,990.50
2022-11-29T02:01:50.447Z,990.53
2022-11-29T02:02:49.744Z,990.46
2022-11-29T02:03:49.720Z,990.49
2022-11-29T02:04:49.666Z,990.49
2022-11-29T02:05:49.675Z,990.49
2022-11-29T02:06:50.715Z,990.51
2022-11-29T02:07:49.807Z,990.51
2022-11-29T02:08:49.630Z,990.58
2022-11-29T02:09:49.621Z,990.53
2022-11-29T02:10:49.678Z,990.54
2022-11-29T02:11:49.687Z,990.49
2022-11-29T02:12:49.574Z,990.56
2022-11-29T02:13:49.657Z,990.55
2022-11-29T02:14:49.559Z,990.60
2022-11-29T02:15:49.678Z,990.59
2022-11-29T02:16:55.014Z,990.59
2022-11-29T02:17:51.538Z,990.54
2022-11-29T02:18:49.611Z,990.55
2022-11-29T02:19:49.583Z,990.55
2022-11-29T02:20:49.570Z,990.58
2022-11-29T02:21:49.584Z,990.57
2022-11-29T02:22:49.458Z,990.49
2022-11-29T02:23:49.649Z,990.53
2022-11-29T02:24:49.585Z,990.56
2022-11-29T02:25:49.497Z,990.58
2022-11-29T02:26:49.451Z,990.58
2022-11-29T02:27:49.467Z,990.54
2022-11-29T02:28:49.525Z,990.54
2022-11-29T02:29:49.457Z,990.60
2022-11-29T02:30:49.414Z,990.59
2022-11-29T02:31:49.386Z,990.56
2022-11-29T02:32:49.462Z,990.64
2022-11-29T02:33:49.586Z,990.53
2022-11-29T02:34:49.377Z,990.54
2022-11-29T02:35:49.338Z,990.52
2022-11-29T02:36:49.434Z,990.54
2022-11-29T02:37:49.318Z,990.60
2022-11-29T02:38:49.386Z,990.54
2022-11-29T02:39:49.362Z,990.51
2022-11-29T02:40:49.258Z,990.56
2022-11-29T02:41:49.375Z,990.52
2022-11-29T02:42:54.409Z,990.50
2022-11-29T02:43:51.378Z,990.56
2022-11-29T02:44:49.354Z,990.52
2022-11-29T02:45:49.360Z,990.54
2022-11-29T02:46:49.243Z,990.51
2022-11-29T02:47:49.191Z,990.55
2022-11-29T02:48:49.223Z,990.56
2022-11-29T02:49:49.296Z,990.55
2022-11-29T02:50:49.199Z,990.55
2022-11-29T02:51:49.135Z,990.56
2022-11-29T02:52:49.387Z,990.50
2022-11-29T02:53:49.219Z,990.51
2022-11-29T02:54:49.283Z,990.62
2022-11-29T02:55:49.195Z,990.53
2022-11-29T02:56:49.072Z,990.58
2022-11-29T02:57:49.172Z,990.57
2022-11-29T02:58:49.075Z,990.54
2022-11-29T02:59:49.046Z,990.59
2022-11-29T03:00:49.019Z,990.63
2022-11-29T03:01:49.139Z,990.56
2022-11-29T03:02:49.140Z,990.56
2022-11-29T03:03:49.144Z,990.63
2022-11-29T03:04:49.199Z,990.64
2022-11-29T03:05:49.046Z,990.63
2022-11-29T03:06:48.994Z,990.61
2022-11-29T03:07:49.056Z,990.64
2022-11-29T03:08:49.909Z,990.64
2022-11-29T03:09:49.143Z,990.67
2022-11-29T03:10:49.480Z,990.65
2022-11-29T03:11:48.996Z,990.71
2022-11-29T03:12:48.975Z,990.74
2022-11-29T03:13:48.952Z,990.72
2022-11-29T03:14:48.963Z,990.71
2022-11-29T03:15:48.967Z,990.70
2022-11-29T03:16:48.908Z,990.71
2022-11-29T03:17:49.836Z,990.72
2022-11-29T03:18:48.892Z,990.77
2022-11-29T03:19:48.815Z,990.78
2022-11-29T03:20:48.855Z,990.78
2022-11-29T03:21:48.807Z,990.73
2022-11-29T03:22:48.790Z,990.82
2022-11-29T03:23:48.823Z,990.78
2022-11-29T03:24:48.838Z,990.77
2022-11-29T03:25:48.852Z,990.84
2022-11-29T03:26:48.837Z,990.85
2022-11-29T03:27:49.408Z,990.84
2022-11-29T03:28:48.781Z,990.87
2022-11-29T03:30:22.059Z,990.88
2022-11-29T03:30:58.911Z,990.89
2022-11-29T03:31:49.681Z,990.88
2022-11-29T03:32:48.721Z,990.90
2022-11-29T03:33:48.729Z,990.89
2022-11-29T03:34:51.834Z,990.91
2022-11-29T03:35:49.664Z,990.90
2022-11-29T03:36:48.693Z,990.89
2022-11-29T03:37:48.658Z,990.90
2022-11-29T03:38:49.513Z,990.87
2022-11-29T03:39:49.475Z,990.90
2022-11-29T03:40:49.702Z,990.89
2022-11-29T03:41:48.674Z,990.89
2022-11-29T03:42:48.577Z,990.91
2022-11-29T03:43:48.569Z,990.90
2022-11-29T03:44:48.601Z,990.93
2022-11-29T03:45:48.540Z,990.95
2022-11-29T03:46:48.542Z,990.96
2022-11-29T03:47:48.568Z,990.97
2022-11-29T03:48:48.507Z,990.98
2022-11-29T03:49:48.515Z,990.99
2022-11-29T03:50:48.490Z,990.92
2022-11-29T03:51:48.571Z,990.95
2022-11-29T03:52:48.567Z,990.93
2022-11-29T03:53:48.486Z,990.93
2022-11-29T03:54:48.421Z,990.97
2022-11-29T03:55:48.454Z,991.00
2022-11-29T03:56:48.442Z,990.95
2022-11-29T03:57:48.374Z,991.02
2022-11-29T03:58:49.083Z,990.99
2022-11-29T03:59:48.382Z,990.97
2022-11-29T04:00:48.402Z,990.94
2022-11-29T04:01:48.413Z,990.94
2022-11-29T04:02:48.427Z,990.95
2022-11-29T04:03:48.354Z,990.97
2022-11-29T04:04:48.408Z,990.89
2022-11-29T04:05:48.349Z,990.98
2022-11-29T04:06:48.343Z,990.94
2022-11-29T04:07:48.412Z,990.95
2022-11-29T04:08:48.307Z,990.94
2022-11-29T04:09:48.244Z,991.01
2022-11-29T04:10:48.290Z,990.91
2022-11-29T04:11:48.296Z,990.96
2022-11-29T04:12:48.274Z,990.99
2022-11-29T04:13:48.867Z,990.94
2022-11-29T04:14:48.240Z,990.97
2022-11-29T04:15:48.218Z,990.94
2022-11-29T04:16:48.199Z,990.98
2022-11-29T04:17:48.158Z,991.02
2022-11-29T04:18:48.207Z,990.99
2022-11-29T04:19:48.119Z,991.04
2022-11-29T04:20:48.603Z,991.02
2022-11-29T04:21:49.997Z,991.04
2022-11-29T04:22:48.138Z,991.04
2022-11-29T04:23:48.127Z,991.00
2022-11-29T04:24:48.127Z,991.03
2022-11-29T04:25:48.063Z,991.08
2022-11-29T04:26:48.112Z,991.08
2022-11-29T04:27:48.641Z,991.08
2022-11-29T04:28:48.057Z,991.10
2022-11-29T04:29:48.048Z,991.04
2022-11-29T04:30:49.147Z,991.18
2022-11-29T04:31:48.065Z,991.14
2022-11-29T04:32:48.009Z,991.12
2022-11-29T04:33:48.145Z,991.12
2022-11-29T04:34:48.041Z,991.15
2022-11-29T04:35:47.960Z,991.13
2022-11-29T04:36:47.955Z,991.21
2022-11-29T04:37:47.957Z,991.16
2022-11-29T04:38:47.939Z,991.18
2022-11-29T04:39:48.021Z,991.21
2022-11-29T04:40:47.880Z,991.17
2022-11-29T04:41:48.863Z,991.18
2022-11-29T04:42:47.864Z,991.14
2022-11-29T04:43:47.901Z,991.21
2022-11-29T04:44:47.910Z,991.21
2022-11-29T04:45:47.850Z,991.23
2022-11-29T04:46:47.855Z,991.23
2022-11-29T04:47:47.875Z,991.23
2022-11-29T04:48:47.813Z,991.28
2022-11-29T04:49:47.822Z,991.29
2022-11-29T04:50:47.824Z,991.27
2022-11-29T04:51:47.752Z,991.25
2022-11-29T04:52:47.755Z,991.28
2022-11-29T04:53:47.741Z,991.25
2022-11-29T04:54:47.800Z,991.27
2022-11-29T04:55:47.804Z,991.29
2022-11-29T04:56:47.697Z,991.26
2022-11-29T04:57:47.679Z,991.34
2022-11-29T04:58:47.702Z,991.29
2022-11-29T04:59:47.709Z,991.32
2022-11-29T05:00:47.721Z,991.30
2022-11-29T05:01:47.707Z,991.35
2022-11-29T05:02:47.681Z,991.33
2022-11-29T05:03:50.261Z,991.33
2022-11-29T05:04:48.602Z,991.36
2022-11-29T05:05:47.640Z,991.40
2022-11-29T05:07:21.455Z,991.43
2022-11-29T05:08:22.688Z,991.39
2022-11-29T05:08:47.816Z,991.44
2022-11-29T05:09:47.818Z,991.41
2022-11-29T05:10:47.785Z,991.36
2022-11-29T05:11:47.617Z,991.40
2022-11-29T05:12:47.554Z,991.42
2022-11-29T05:13:47.758Z,991.43
2022-11-29T05:14:47.711Z,991.44
2022-11-29T05:15:47.635Z,991.39
2022-11-29T05:16:47.558Z,991.45
2022-11-29T05:17:47.552Z,991.42
2022-11-29T05:18:47.521Z,991.38
2022-11-29T05:21:06.453Z,991.45
2022-11-29T05:22:07.602Z,991.44
2022-11-29T05:23:07.553Z,991.47
2022-11-29T05:24:07.606Z,991.48
2022-11-29T05:25:07.621Z,991.47
2022-11-29T05:26:07.562Z,991.56
2022-11-29T05:27:07.542Z,991.48
2022-11-29T05:28:10.214Z,991.48
2022-11-29T05:29:09.519Z,991.55
2022-11-29T05:30:07.557Z,991.51
2022-11-29T05:31:07.593Z,991.56
2022-11-29T05:32:07.578Z,991.61
2022-11-29T05:33:07.478Z,991.57
2022-11-29T05:34:07.454Z,991.61
2022-11-29T05:35:07.422Z,991.54
2022-11-29T05:36:07.421Z,991.58
2022-11-29T05:37:07.434Z,991.55
2022-11-29T05:38:07.386Z,991.65
2022-11-29T05:39:07.393Z,991.68
2022-11-29T05:40:07.376Z,991.67
2022-11-29T05:41:07.356Z,991.69
2022-11-29T05:42:07.362Z,991.67
2022-11-29T05:43:07.356Z,991.69
2022-11-29T05:44:07.316Z,991.65
2022-11-29T05:45:07.351Z,991.69
2022-11-29T05:46:07.329Z,991.69
2022-11-29T05:47:07.304Z,991.69
2022-11-29T05:48:07.327Z,991.68
2022-11-29T05:49:07.265Z,991.68
2022-11-29T05:50:07.321Z,991.70
2022-11-29T05:51:07.248Z,991.69
2022-11-29T05:52:07.281Z,991.71
2022-11-29T05:53:07.248Z,991.72
2022-11-29T05:54:07.304Z,991.71
2022-11-29T05:55:07.218Z,991.77
2022-11-29T05:56:07.301Z,991.77
2022-11-29T05:57:07.204Z,991.75
2022-11-29T05:58:07.150Z,991.78
2022-11-29T05:59:07.130Z,991.72
2022-11-29T06:00:07.226Z,991.80
2022-11-29T06:01:07.133Z,991.82
2022-11-29T06:02:07.170Z,991.81
2022-11-29T06:03:07.194Z,991.81
2022-11-29T06:04:13.199Z,991.89
2022-11-29T06:05:08.112Z,991.82
2022-11-29T06:06:07.131Z,991.86
2022-11-29T06:07:07.261Z,991.91
2022-11-29T06:08:07.073Z,991.95
2022-11-29T06:09:07.053Z,991.93
2022-11-29T06:10:07.010Z,991.95
2022-11-29T06:11:07.029Z,991.93
2022-11-29T06:12:07.024Z,991.88
2022-11-29T06:13:07.018Z,991.92
2022-11-29T06:14:06.974Z,991.98
2022-11-29T06:15:06.959Z,991.92
2022-11-29T06:16:07.234Z,992.00
2022-11-29T06:17:06.941Z,991.99
2022-11-29T06:18:06.920Z,992.01
2022-11-29T06:19:06.915Z,992.01
2022-11-29T06:20:06.906Z,992.04
2022-11-29T06:21:06.931Z,992.04
2022-11-29T06:22:06.927Z,992.01
2022-11-29T06:23:06.879Z,992.06
2022-11-29T06:24:06.895Z,992.05
2022-11-29T06:25:07.679Z,992.09
2022-11-29T06:26:06.878Z,992.09
2022-11-29T06:27:06.831Z,992.10
2022-11-29T06:28:06.823Z,992.05
2022-11-29T06:29:06.829Z,992.13
2022-11-29T06:30:06.888Z,992.14
2022-11-29T06:31:07.779Z,992.22
2022-11-29T06:32:06.766Z,992.13
2022-11-29T06:33:06.867Z,992.18
2022-11-29T06:34:06.754Z,992.18
2022-11-29T06:35:06.744Z,992.17
2022-11-29T06:36:06.762Z,992.17
2022-11-29T06:37:06.742Z,992.21
2022-11-29T06:38:06.726Z,992.15
2022-11-29T06:39:06.686Z,992.16
2022-11-29T06:40:06.680Z,992.12
2022-11-29T06:41:06.710Z,992.22
2022-11-29T06:42:06.707Z,992.18
2022-11-29T06:43:06.678Z,992.15
2022-11-29T06:44:06.606Z,992.22
2022-11-29T06:45:06.678Z,992.24
2022-11-29T06:46:06.616Z,992.22
2022-11-29T06:47:07.543Z,992.20
2022-11-29T06:48:07.210Z,992.19
2022-11-29T06:49:06.667Z,992.20
2022-11-29T06:50:08.147Z,992.21
2022-11-29T06:51:06.535Z,992.28
2022-11-29T06:52:06.517Z,992.24
2022-11-29T06:53:06.548Z,992.22
2022-11-29T06:54:06.500Z,992.27
2022-11-29T06:55:06.561Z,992.24
2022-11-29T06:56:06.587Z,992.26
2022-11-29T06:57:06.496Z,992.31
2022-11-29T06:58:06.447Z,992.29
2022-11-29T06:59:06.500Z,992.31
2022-11-29T07:00:07.126Z,992.32
2022-11-29T07:01:06.501Z,992.33
2022-11-29T07:02:07.189Z,992.37
2022-11-29T07:03:06.557Z,992.43
2022-11-29T07:04:06.389Z,992.36
2022-11-29T07:05:06.541Z,992.43
2022-11-29T07:06:06.392Z,992.38
2022-11-29T07:07:06.377Z,992.45
2022-11-29T07:08:07.099Z,992.41
2022-11-29T07:09:07.184Z,992.48
2022-11-29T07:10:10.608Z,992.49
2022-11-29T07:11:07.324Z,992.46
2022-11-29T07:12:06.316Z,992.54
2022-11-29T07:13:06.395Z,992.50
2022-11-29T07:14:06.300Z,992.50
2022-11-29T07:15:06.293Z,992.53
2022-11-29T07:16:06.361Z,992.53
2022-11-29T07:17:06.336Z,992.55
2022-11-29T07:18:06.277Z,992.54
2022-11-29T07:19:06.325Z,992.54
2022-11-29T07:20:07.173Z,992.57
2022-11-29T07:21:06.236Z,992.55
2022-11-29T07:22:06.956Z,992.60
2022-11-29T07:23:06.236Z,992.63
2022-11-29T07:24:06.218Z,992.61
2022-11-29T07:25:06.160Z,992.59
2022-11-29T07:26:07.214Z,992.59
2022-11-29T07:27:06.309Z,992.56
2022-11-29T07:28:06.159Z,992.62
2022-11-29T07:29:07.185Z,992.59
2022-11-29T07:30:06.097Z,992.63
2022-11-29T07:31:06.160Z,992.53
2022-11-29T07:32:06.221Z,992.59
2022-11-29T07:33:06.054Z,992.54
2022-11-29T07:34:06.078Z,992.60
2022-11-29T07:35:06.053Z,992.61
2022-11-29T07:36:06.060Z,992.56
2022-11-29T07:37:06.042Z,992.57
2022-11-29T07:38:06.077Z,992.54
2022-11-29T07:39:06.066Z,992.61
2022-11-29T07:40:06.048Z,992.61
2022-11-29T07:41:05.977Z,992.57
2022-11-29T07:42:06.086Z,992.55
2022-11-29T07:43:05.981Z,992.59
2022-11-29T07:44:05.937Z,992.60
2022-11-29T07:45:05.942Z,992.62
2022-11-29T07:46:06.754Z,992.61
2022-11-29T07:47:06.069Z,992.64
2022-11-29T07:48:05.882Z,992.71
2022-11-29T07:49:05.875Z,992.66
2022-11-29T07:50:05.907Z,992.60
2022-11-29T07:51:05.920Z,992.65
2022-11-29T07:52:05.917Z,992.63
2022-11-29T07:53:06.646Z,992.67
2022-11-29T07:54:05.820Z,992.69
2022-11-29T07:55:05.818Z,992.67
2022-11-29T07:56:05.871Z,992.68
2022-11-29T07:57:06.968Z,992.66
2022-11-29T07:58:05.799Z,992.61
2022-11-29T07:59:05.856Z,992.68
2022-11-29T08:00:05.779Z,992.69
2022-11-29T08:01:05.840Z,992.69
2022-11-29T08:02:11.455Z,992.72
2022-11-29T08:03:07.724Z,992.77
2022-11-29T08:04:05.731Z,992.77
2022-11-29T08:05:05.759Z,992.80
2022-11-29T08:06:05.688Z,992.82
2022-11-29T08:07:05.703Z,992.80
2022-11-29T08:08:05.672Z,992.77
2022-11-29T08:09:05.676Z,992.83
2022-11-29T08:10:05.676Z,992.81
2022-11-29T08:11:06.563Z,992.87
2022-11-29T08:12:06.656Z,992.83
2022-11-29T08:13:05.668Z,992.79
2022-11-29T08:14:06.534Z,992.85
2022-11-29T08:15:05.752Z,992.79
2022-11-29T08:16:05.708Z,992.86
2022-11-29T08:17:05.555Z,992.86
2022-11-29T08:18:05.548Z,992.91
2022-11-29T08:19:05.583Z,992.96
2022-11-29T08:20:05.600Z,992.95
2022-11-29T08:21:05.576Z,992.91
2022-11-29T08:22:05.524Z,992.95
2022-11-29T08:23:05.520Z,992.96
2022-11-29T08:24:05.552Z,992.93
2022-11-29T08:25:05.481Z,992.93
2022-11-29T08:26:05.461Z,993.01
2022-11-29T08:27:06.220Z,992.99
2022-11-29T08:28:05.545Z,992.99
2022-11-29T08:29:05.511Z,992.95
2022-11-29T08:30:05.480Z,992.97
2022-11-29T08:31:05.438Z,992.96
2022-11-29T08:32:05.533Z,992.97
2022-11-29T08:33:06.109Z,992.98
2022-11-29T08:34:05.463Z,993.00
2022-11-29T08:35:05.366Z,992.98
2022-11-29T08:36:05.342Z,993.03
2022-11-29T08:37:05.377Z,993.04
2022-11-29T08:38:05.321Z,993.05
2022-11-29T08:39:09.354Z,993.03
2022-11-29T08:40:06.105Z,993.00
2022-11-29T08:41:05.301Z,993.08
2022-11-29T08:42:05.341Z,993.08
2022-11-29T08:43:05.310Z,993.08
2022-11-29T08:44:05.265Z,993.10
2022-11-29T08:45:05.326Z,993.09
2022-11-29T08:46:05.317Z,993.15
2022-11-29T08:47:07.209Z,993.11
2022-11-29T08:48:05.210Z,993.08
2022-11-29T08:49:05.251Z,993.13
2022-11-29T08:50:05.266Z,993.10
2022-11-29T08:51:05.299Z,993.12
2022-11-29T08:52:05.157Z,993.09
2022-11-29T08:53:05.164Z,993.14
2022-11-29T08:54:05.137Z,993.19
2022-11-29T08:55:05.166Z,993.15
2022-11-29T08:56:23.522Z,993.13
2022-11-29T08:58:07.667Z,993.20
2022-11-29T08:59:05.127Z,993.21
2022-11-29T09:00:05.130Z,993.20
2022-11-29T09:01:05.145Z,993.23
2022-11-29T09:02:05.101Z,993.25
2022-11-29T09:03:05.623Z,993.28
2022-11-29T09:04:05.036Z,993.24
2022-11-29T09:05:05.047Z,993.31
2022-11-29T09:06:09.011Z,993.35
2022-11-29T09:07:07.010Z,993.25
2022-11-29T09:08:04.995Z,993.33
2022-11-29T09:09:04.964Z,993.31
2022-11-29T09:10:05.022Z,993.31
2022-11-29T09:11:06.603Z,993.37
2022-11-29T09:12:05.014Z,993.30
2022-11-29T09:13:04.996Z,993.33
2022-11-29T09:14:04.947Z,993.36
2022-11-29T09:15:05.023Z,993.36
2022-11-29T09:16:05.514Z,993.40
2022-11-29T09:17:04.950Z,993.37
2022-11-29T09:18:05.891Z,993.40
2022-11-29T09:19:04.881Z,993.37
2022-11-29T09:20:04.955Z,993.36
2022-11-29T09:21:04.920Z,993.41
2022-11-29T09:22:06.252Z,993.36
2022-11-29T09:23:04.823Z,993.43
2022-11-29T09:24:04.899Z,993.43
2022-11-29T09:25:05.635Z,993.40
2022-11-29T09:26:04.860Z,993.42
2022-11-29T09:27:04.892Z,993.44
2022-11-29T09:28:04.883Z,993.48
2022-11-29T09:29:04.839Z,993.44
2022-11-29T09:30:04.740Z,993.46
2022-11-29T09:31:05.545Z,993.47
2022-11-29T09:32:04.758Z,993.52
2022-11-29T09:33:04.856Z,993.50
2022-11-29T09:34:05.714Z,993.51
2022-11-29T09:35:04.723Z,993.51
2022-11-29T09:36:04.760Z,993.49
2022-11-29T09:37:04.714Z,993.53
2022-11-29T09:38:04.724Z,993.51
2022-11-29T09:39:04.636Z,993.56
2022-11-29T09:40:04.777Z,993.53
2022-11-29T09:41:04.667Z,993.57
2022-11-29T09:42:04.639Z,993.57
2022-11-29T09:43:04.686Z,993.54
2022-11-29T09:44:04.683Z,993.59
2022-11-29T09:45:04.664Z,993.63
2022-11-29T09:46:04.723Z,993.62
2022-11-29T09:47:04.547Z,993.68
2022-11-29T09:48:04.563Z,993.62
2022-11-29T09:49:04.549Z,993.64
2022-11-29T09:50:04.683Z,993.63
2022-11-29T09:51:04.586Z,993.62
2022-11-29T09:52:04.560Z,993.64
2022-11-29T09:53:04.489Z,993.68
2022-11-29T09:54:04.469Z,993.63
2022-11-29T09:55:04.550Z,993.70
2022-11-29T09:56:04.473Z,993.65
2022-11-29T09:57:10.203Z,993.70
2022-11-29T09:58:07.104Z,993.70
2022-11-29T09:59:04.440Z,993.64
2022-11-29T10:00:04.433Z,993.69
2022-11-29T10:01:04.460Z,993.69
2022-11-29T10:02:04.475Z,993.73
2022-11-29T10:03:04.440Z,993.74
2022-11-29T10:04:04.372Z,993.72
2022-11-29T10:05:04.396Z,993.70
2022-11-29T10:06:04.420Z,993.70
2022-11-29T10:07:04.382Z,993.72
2022-11-29T10:08:05.045Z,993.68
2022-11-29T10:09:04.316Z,993.71
2022-11-29T10:10:04.417Z,993.72
2022-11-29T10:11:04.317Z,993.68
2022-11-29T10:12:04.300Z,993.73
2022-11-29T10:13:04.425Z,993.69
2022-11-29T10:14:04.247Z,993.73
2022-11-29T10:15:04.400Z,993.74
2022-11-29T10:16:04.313Z,993.69
2022-11-29T10:17:04.564Z,993.73
2022-11-29T10:18:04.242Z,993.72
2022-11-29T10:19:04.285Z,993.72
2022-11-29T10:20:04.981Z,993.74
2022-11-29T10:21:04.249Z,993.68
2022-11-29T10:22:04.290Z,993.72
2022-11-29T10:23:04.254Z,993.63
2022-11-29T10:24:04.146Z,993.74
2022-11-29T10:25:04.158Z,993.72
2022-11-29T10:26:04.333Z,993.70
2022-11-29T10:27:04.107Z,993.74
2022-11-29T10:28:04.101Z,993.76
2022-11-29T10:29:04.231Z,993.79
2022-11-29T10:30:04.211Z,993.75
2022-11-29T10:31:04.285Z,993.75
2022-11-29T10:32:08.792Z,993.72
2022-11-29T10:33:05.043Z,993.72
2022-11-29T10:34:04.155Z,993.74
2022-11-29T10:35:05.161Z,993.71
2022-11-29T10:36:04.022Z,993.75
2022-11-29T10:37:04.106Z,993.77
2022-11-29T10:38:29.713Z,993.75
2022-11-29T10:39:10.029Z,993.81
2022-11-29T10:40:05.003Z,993.78
2022-11-29T10:41:04.082Z,993.78
2022-11-29T10:42:03.950Z,993.79
2022-11-29T10:43:04.002Z,993.80
2022-11-29T10:44:04.598Z,993.83
2022-11-29T10:45:03.900Z,993.83
2022-11-29T10:46:04.684Z,993.88
2022-11-29T10:47:09.268Z,993.85
2022-11-29T10:48:05.943Z,993.90
2022-11-29T10:49:06.486Z,993.85
2022-11-29T10:50:03.863Z,993.86
2022-11-29T10:51:04.639Z,993.86
2022-11-29T10:52:03.842Z,993.84
2022-11-29T10:53:04.526Z,993.80
2022-11-29T10:54:03.846Z,993.79
2022-11-29T10:55:03.864Z,993.82
2022-11-29T10:56:04.696Z,993.84
2022-11-29T10:57:03.794Z,993.86
2022-11-29T10:58:04.778Z,993.80
2022-11-29T10:59:03.818Z,993.84
2022-11-29T11:00:03.786Z,993.85
2022-11-29T11:01:03.811Z,993.87
2022-11-29T11:02:03.783Z,993.86
2022-11-29T11:03:05.667Z,993.87
2022-11-29T11:04:03.731Z,993.86
2022-11-29T11:05:03.707Z,993.85
2022-11-29T11:06:03.743Z,993.88
2022-11-29T11:07:03.747Z,993.82
2022-11-29T11:08:03.664Z,993.85
2022-11-29T11:09:03.663Z,993.82
2022-11-29T11:10:05.702Z,993.81
2022-11-29T11:11:03.612Z,993.78
2022-11-29T11:12:03.661Z,993.84
2022-11-29T11:13:04.509Z,993.84
2022-11-29T11:14:03.616Z,993.84
2022-11-29T11:15:03.596Z,993.88
2022-11-29T11:16:03.587Z,993.87
2022-11-29T11:17:03.605Z,993.85
2022-11-29T11:18:04.512Z,993.81
2022-11-29T11:19:03.557Z,993.85
2022-11-29T11:20:03.532Z,993.88
2022-11-29T11:21:03.537Z,993.87
2022-11-29T11:22:03.597Z,993.86
2022-11-29T11:23:03.531Z,993.91
2022-11-29T11:24:03.609Z,993.89
2022-11-29T11:25:03.476Z,993.88
2022-11-29T11:26:03.482Z,993.94
2022-11-29T11:27:03.469Z,993.93
2022-11-29T11:28:03.441Z,993.91
2022-11-29T11:29:04.465Z,993.89
2022-11-29T11:30:03.484Z,993.88
2022-11-29T11:31:03.532Z,993.93
2022-11-29T11:32:05.138Z,993.89
2022-11-29T11:33:04.090Z,993.99
2022-11-29T11:34:03.393Z,993.94
2022-11-29T11:35:04.025Z,993.91
2022-11-29T11:36:03.413Z,993.96
2022-11-29T11:37:03.344Z,994.05
2022-11-29T11:38:03.499Z,994.02
2022-11-29T11:39:03.382Z,994.04
2022-11-29T11:40:05.071Z,994.01
2022-11-29T11:41:03.567Z,994.06
2022-11-29T11:42:03.638Z,994.07
2022-11-29T11:43:04.975Z,994.03
2022-11-29T11:44:07.145Z,994.06
2022-11-29T11:45:05.245Z,994.08
2022-11-29T11:46:06.762Z,994.07
2022-11-29T11:47:03.241Z,994.14
2022-11-29T11:48:04.084Z,994.10
2022-11-29T11:49:04.058Z,994.04
2022-11-29T11:50:03.194Z,994.14
2022-11-29T11:51:03.201Z,994.14
2022-11-29T11:52:03.169Z,994.10
2022-11-29T11:53:03.205Z,994.11
2022-11-29T11:54:03.142Z,994.17
2022-11-29T11:55:03.157Z,994.12
2022-11-29T11:56:03.174Z,994.11
2022-11-29T11:57:03.156Z,994.11
2022-11-29T11:58:09.364Z,994.09
2022-11-29T11:59:05.094Z,994.09
2022-11-29T12:00:06.912Z,994.11
2022-11-29T12:01:05.222Z,994.15
2022-11-29T12:02:05.142Z,994.14
2022-11-29T12:03:04.047Z,994.15
2022-11-29T12:04:03.087Z,994.18
2022-11-29T12:05:03.036Z,994.14
2022-11-29T12:06:03.024Z,994.21
2022-11-29T12:07:03.043Z,994.19
2022-11-29T12:08:08.075Z,994.16
2022-11-29T12:09:06.491Z,994.22
2022-11-29T12:10:02.994Z,994.19
2022-11-29T12:11:07.212Z,994.18
2022-11-29T12:12:03.959Z,994.19
2022-11-29T12:13:03.580Z,994.24
2022-11-29T12:14:02.937Z,994.21
2022-11-29T12:15:02.966Z,994.16
2022-11-29T12:16:03.048Z,994.21
2022-11-29T12:17:02.918Z,994.24
2022-11-29T12:18:02.916Z,994.27
2022-11-29T12:19:04.496Z,994.25
2022-11-29T12:20:03.149Z,994.27
2022-11-29T12:21:02.864Z,994.25
2022-11-29T12:22:02.847Z,994.30
2022-11-29T12:23:03.713Z,994.29
2022-11-29T12:24:02.819Z,994.21
2022-11-29T12:25:02.828Z,994.28
2022-11-29T12:26:03.651Z,994.26
2022-11-29T12:27:02.860Z,994.29
2022-11-29T12:28:03.673Z,994.29
2022-11-29T12:29:04.628Z,994.33
2022-11-29T12:30:03.658Z,994.39
2022-11-29T12:31:02.827Z,994.36